createdAt,value
2019-04-29T00:01:08.363Z,10.93
2019-04-29T00:03:36.804Z,10.95
2019-04-29T00:06:05.128Z,10.60
2019-04-29T00:08:33.507Z,11.65
2019-04-29T00:11:01.811Z,9.93
2019-04-29T00:13:30.576Z,9.83
2019-04-29T00:16:03.547Z,10.80
2019-04-29T00:18:48.819Z,10.53
2019-04-29T00:21:17.858Z,10.30
2019-04-29T00:23:46.592Z,10.72
2019-04-29T00:26:14.912Z,10.15
2019-04-29T00:28:43.207Z,10.23
2019-04-29T00:31:11.572Z,10.78
2019-04-29T00:33:39.963Z,10.98
2019-04-29T00:36:08.265Z,10.40
2019-04-29T00:38:41.216Z,10.95
2019-04-29T00:41:11.182Z,10.75
2019-04-29T00:43:57.821Z,11.28
2019-04-29T00:46:26.276Z,11.30
2019-04-29T00:48:54.646Z,11.30
2019-04-29T00:51:23.016Z,11.15
2019-04-29T00:53:52.969Z,11.88
2019-04-29T00:56:21.337Z,11.50
2019-04-29T00:58:49.708Z,10.88
2019-04-29T01:01:19.660Z,10.58
2019-04-29T01:03:47.965Z,11.03
2019-04-29T01:06:16.688Z,11.00
2019-04-29T01:08:44.994Z,11.20
2019-04-29T01:11:13.658Z,11.48
2019-04-29T01:13:42.019Z,11.75
2019-04-29T01:16:10.413Z,11.60
2019-04-29T01:18:38.759Z,11.50
2019-04-29T01:21:07.052Z,11.25
2019-04-29T01:23:35.368Z,11.40
2019-04-29T01:26:08.205Z,11.83
2019-04-29T01:28:49.472Z,12.03
2019-04-29T01:31:19.047Z,12.40
2019-04-29T01:33:49.000Z,12.58
2019-04-29T01:36:21.978Z,11.83
2019-04-29T01:38:51.972Z,12.53
2019-04-29T01:41:24.644Z,12.00
2019-04-29T01:44:00.154Z,11.75
2019-04-29T01:46:29.088Z,12.13
2019-04-29T01:48:57.628Z,11.75
2019-04-29T01:51:26.318Z,11.95
2019-04-29T01:53:54.718Z,12.53
2019-04-29T01:56:23.172Z,11.95
2019-04-29T01:58:51.540Z,11.95
2019-04-29T02:01:19.936Z,11.93
2019-04-29T02:03:48.246Z,12.20
2019-04-29T02:06:16.614Z,12.18
2019-04-29T02:08:44.936Z,11.60
2019-04-29T02:11:13.239Z,11.83
2019-04-29T02:13:41.612Z,12.03
2019-04-29T02:16:10.273Z,11.85
2019-04-29T02:18:38.894Z,11.40
2019-04-29T02:21:07.182Z,11.73
2019-04-29T02:23:37.138Z,11.83
2019-04-29T02:26:06.099Z,11.50
2019-04-29T02:28:34.396Z,11.57
2019-04-29T02:31:20.368Z,11.03
2019-04-29T02:33:48.718Z,11.28
2019-04-29T02:36:17.026Z,11.38
2019-04-29T02:38:47.059Z,11.30
2019-04-29T02:41:26.255Z,11.78
2019-04-29T02:43:56.248Z,10.82
2019-04-29T02:46:24.549Z,11.57
2019-04-29T02:48:52.931Z,11.33
2019-04-29T02:51:39.501Z,11.73
2019-04-29T02:54:07.795Z,11.48
2019-04-29T02:56:36.423Z,11.83
2019-04-29T02:59:06.480Z,11.33
2019-04-29T03:01:39.191Z,11.78
2019-04-29T03:04:15.045Z,11.80
2019-04-29T03:09:27.994Z,12.45
2019-04-29T03:11:56.300Z,13.62
2019-04-29T03:14:24.600Z,13.20
2019-04-29T03:16:52.934Z,13.35
2019-04-29T03:19:22.891Z,12.95
2019-04-29T03:21:55.384Z,11.07
2019-04-29T03:24:23.718Z,11.97
2019-04-29T03:26:52.018Z,11.80
2019-04-29T03:29:23.344Z,11.65
2019-04-29T03:31:52.502Z,11.60
2019-04-29T03:34:21.070Z,11.75
2019-04-29T03:36:49.383Z,11.60
2019-04-29T03:39:17.710Z,11.43
2019-04-29T03:41:46.042Z,11.93
2019-04-29T03:44:14.376Z,11.45
2019-04-29T03:46:42.712Z,12.13
2019-04-29T03:49:11.030Z,12.33
2019-04-29T03:51:39.333Z,11.65
2019-04-29T03:54:09.705Z,11.78
2019-04-29T03:56:38.092Z,12.13
2019-04-29T03:59:06.445Z,11.65
2019-04-29T04:01:42.561Z,12.05
2019-04-29T04:04:12.513Z,12.30
2019-04-29T04:06:48.296Z,12.25
2019-04-29T04:09:21.047Z,12.65
2019-04-29T04:11:49.385Z,13.28
2019-04-29T04:14:17.770Z,13.53
2019-04-29T04:17:02.555Z,13.15
2019-04-29T04:19:32.651Z,13.50
2019-04-29T04:22:00.968Z,13.98
2019-04-29T04:24:29.286Z,14.23
2019-04-29T04:26:57.627Z,13.70
2019-04-29T04:29:26.245Z,14.65
2019-04-29T04:31:54.575Z,14.38
2019-04-29T04:34:22.659Z,13.40
2019-04-29T04:36:50.969Z,13.25
2019-04-29T04:39:19.276Z,14.00
2019-04-29T04:41:47.606Z,13.93
2019-04-29T04:44:15.928Z,14.10
2019-04-29T04:46:44.582Z,15.63
2019-04-29T04:49:15.842Z,13.72
2019-04-29T04:51:42.983Z,13.72
2019-04-29T04:54:11.287Z,13.72
2019-04-29T04:56:39.620Z,14.20
2019-04-29T04:59:07.938Z,13.60
2019-04-29T05:01:36.262Z,14.30
2019-04-29T05:04:04.588Z,15.00
2019-04-29T05:06:32.877Z,14.60
2019-04-29T05:09:01.179Z,14.35
2019-04-29T05:11:29.527Z,14.55
2019-04-29T05:13:57.840Z,15.18
2019-04-29T05:16:26.155Z,15.58
2019-04-29T05:18:54.938Z,15.55
2019-04-29T05:21:23.316Z,15.25
2019-04-29T05:23:51.661Z,15.08
2019-04-29T05:26:19.980Z,15.58
2019-04-29T05:28:48.279Z,15.30
2019-04-29T05:31:16.587Z,16.45
2019-04-29T05:33:44.928Z,16.82
2019-04-29T05:36:34.003Z,16.93
2019-04-29T05:39:06.482Z,16.17
2019-04-29T05:41:36.457Z,16.97
2019-04-29T05:44:06.408Z,16.35
2019-04-29T05:46:39.318Z,16.70
2019-04-29T05:49:09.264Z,16.50
2019-04-29T05:51:45.215Z,17.17
2019-04-29T05:54:18.134Z,16.57
2019-04-29T05:56:46.417Z,17.55
2019-04-29T05:59:14.755Z,16.93
2019-04-29T06:01:47.297Z,17.23
2019-04-29T06:04:16.291Z,17.85
2019-04-29T06:06:43.310Z,16.35
2019-04-29T06:09:16.614Z,16.35
2019-04-29T06:11:41.680Z,17.37
2019-04-29T06:14:10.058Z,17.42
2019-04-29T06:16:38.341Z,17.65
2019-04-29T06:19:06.682Z,16.17
2019-04-29T06:21:35.048Z,16.40
2019-04-29T06:24:04.442Z,16.70
2019-04-29T06:26:33.397Z,16.70
2019-04-29T06:29:01.738Z,17.00
2019-04-29T06:31:30.043Z,16.35
2019-04-29T06:34:00.543Z,15.55
2019-04-29T06:36:28.403Z,16.62
2019-04-29T06:38:56.723Z,16.97
2019-04-29T06:41:25.024Z,16.05
2019-04-29T06:43:55.895Z,16.77
2019-04-29T06:46:23.207Z,16.87
2019-04-29T06:48:51.519Z,16.42
2019-04-29T06:51:19.858Z,15.53
2019-04-29T06:53:48.727Z,16.27
2019-04-29T06:56:17.033Z,16.20
2019-04-29T06:58:45.571Z,16.87
2019-04-29T07:01:13.890Z,17.50
2019-04-29T07:03:42.210Z,16.85
2019-04-29T07:06:10.536Z,18.42
2019-04-29T07:08:39.188Z,18.48
2019-04-29T07:11:07.584Z,19.35
2019-04-29T07:13:35.957Z,16.17
2019-04-29T07:16:04.256Z,19.37
2019-04-29T07:18:32.618Z,18.42
2019-04-29T07:21:00.994Z,19.30
2019-04-29T07:23:29.299Z,19.45
2019-04-29T07:25:57.598Z,21.60
2019-04-29T07:28:25.935Z,20.75
2019-04-29T07:31:03.099Z,22.67
2019-04-29T07:33:24.547Z,23.18
2019-04-29T07:35:53.096Z,24.52
2019-04-29T07:38:21.407Z,25.85
2019-04-29T07:40:49.872Z,25.43
2019-04-29T07:43:18.232Z,25.77
2019-04-29T07:45:58.901Z,25.45
2019-04-29T07:48:27.383Z,23.80
2019-04-29T07:50:59.379Z,22.37
2019-04-29T07:53:35.977Z,24.45
2019-04-29T07:55:55.775Z,24.47
2019-04-29T07:58:27.325Z,24.32
2019-04-29T08:00:56.226Z,24.07
2019-04-29T08:03:24.460Z,24.85
2019-04-29T08:05:52.760Z,24.93
2019-04-29T08:11:25.037Z,18.35
2019-04-29T08:13:53.346Z,20.85
2019-04-29T08:16:21.656Z,20.15
2019-04-29T08:18:53.620Z,20.27
2019-04-29T08:21:20.443Z,20.50
2019-04-29T08:23:48.731Z,20.50
2019-04-29T08:26:17.374Z,15.95
2019-04-29T08:28:45.726Z,22.50
2019-04-29T08:31:16.607Z,21.68
2019-04-29T08:33:46.820Z,22.35
2019-04-29T08:36:14.406Z,23.02
2019-04-29T08:38:42.722Z,22.37
2019-04-29T08:41:11.058Z,22.45
2019-04-29T08:43:46.896Z,22.60
2019-04-29T08:46:19.698Z,22.30
2019-04-29T08:48:47.992Z,23.37
2019-04-29T08:51:16.376Z,22.58
2019-04-29T08:53:45.029Z,22.90
2019-04-29T08:56:13.386Z,23.05
2019-04-29T08:58:44.399Z,22.62
2019-04-29T09:01:12.263Z,23.27
2019-04-29T09:03:41.066Z,23.85
2019-04-29T09:06:09.595Z,22.30
2019-04-29T09:08:37.993Z,24.02
2019-04-29T09:11:08.155Z,24.12
2019-04-29T09:13:36.740Z,23.67
2019-04-29T09:16:05.395Z,23.65
2019-04-29T09:18:33.750Z,23.18
2019-04-29T09:21:02.057Z,23.03
2019-04-29T09:23:34.591Z,22.90
2019-04-29T09:26:16.581Z,22.07
2019-04-29T09:28:44.952Z,21.82
2019-04-29T09:31:13.255Z,21.93
2019-04-29T09:33:44.101Z,22.17
2019-04-29T09:36:13.858Z,22.87
2019-04-29T09:38:42.283Z,22.77
2019-04-29T09:41:14.980Z,21.62
2019-04-29T09:43:44.967Z,21.33
2019-04-29T09:46:14.922Z,20.55
2019-04-29T09:48:43.270Z,22.15
2019-04-29T09:51:17.751Z,21.73
2019-04-29T09:53:41.699Z,21.52
2019-04-29T09:56:10.010Z,21.30
2019-04-29T09:58:38.730Z,20.00
2019-04-29T10:01:13.996Z,18.92
2019-04-29T10:03:59.842Z,18.07
2019-04-29T10:06:29.841Z,18.30
2019-04-29T10:08:58.336Z,19.42
2019-04-29T10:11:26.735Z,19.07
2019-04-29T10:13:55.353Z,16.87
2019-04-29T10:16:35.959Z,21.45
2019-04-29T10:19:07.006Z,19.77
2019-04-29T10:21:37.688Z,19.33
2019-04-29T10:24:06.627Z,19.27
2019-04-29T10:26:34.939Z,19.57
2019-04-29T10:29:07.585Z,18.70
2019-04-29T10:31:36.219Z,19.00
2019-04-29T10:34:06.217Z,18.17
2019-04-29T10:36:34.532Z,18.23
2019-04-29T10:39:04.511Z,18.65
2019-04-29T10:41:36.028Z,19.25
2019-04-29T10:44:09.578Z,18.65
2019-04-29T10:46:54.558Z,16.75
2019-04-29T10:49:27.260Z,12.80
2019-04-29T10:51:58.127Z,15.48
2019-04-29T10:54:26.027Z,16.02
2019-04-29T10:56:54.367Z,15.07
2019-04-29T10:59:35.327Z,15.53
2019-04-29T11:02:14.400Z,15.78
2019-04-29T11:04:40.245Z,14.98
2019-04-29T11:07:18.687Z,14.65
2019-04-29T11:09:55.368Z,14.63
2019-04-29T11:12:23.708Z,15.40
2019-04-29T11:14:52.055Z,15.60
2019-04-29T11:17:22.186Z,16.12
2019-04-29T11:19:50.625Z,14.35
2019-04-29T11:22:20.572Z,14.83
2019-04-29T11:28:05.177Z,14.87
2019-04-29T11:30:39.526Z,14.55
2019-04-29T11:33:09.764Z,14.60
2019-04-29T11:35:51.297Z,13.40
2019-04-29T11:38:21.099Z,12.88
2019-04-29T11:40:49.439Z,12.65
2019-04-29T11:43:18.719Z,14.70
2019-04-29T11:45:47.423Z,14.83
2019-04-29T11:48:15.713Z,11.97
2019-04-29T11:50:50.184Z,10.98
2019-04-29T11:53:15.753Z,9.98
2019-04-29T11:55:46.329Z,11.07
2019-04-29T11:58:15.983Z,10.30
2019-04-29T12:00:51.791Z,10.38
2019-04-29T12:03:37.445Z,10.18
2019-04-29T12:06:07.306Z,10.40
2019-04-29T12:08:35.596Z,10.77
2019-04-29T12:11:07.209Z,9.30
2019-04-29T12:13:35.763Z,10.85
2019-04-29T12:16:15.033Z,10.10
2019-04-29T12:18:54.322Z,10.18
2019-04-29T12:21:33.188Z,8.60
2019-04-29T12:24:02.192Z,9.33
2019-04-29T12:26:34.995Z,10.75
2019-04-29T12:29:00.994Z,10.13
2019-04-29T12:31:51.038Z,9.08
2019-04-29T12:34:37.054Z,9.60
2019-04-29T12:37:07.027Z,8.00
2019-04-29T12:39:43.750Z,8.30
2019-04-29T12:42:16.974Z,9.80
2019-04-29T12:44:47.028Z,8.30
2019-04-29T12:47:26.369Z,7.37
2019-04-29T12:49:48.194Z,8.43
2019-04-29T12:52:16.751Z,7.93
2019-04-29T12:54:46.087Z,8.33
2019-04-29T12:57:18.913Z,7.87
2019-04-29T12:59:45.110Z,8.00
2019-04-29T13:02:24.501Z,7.67
2019-04-29T13:04:58.820Z,7.20
2019-04-29T13:07:31.619Z,7.67
2019-04-29T13:10:06.882Z,7.08
2019-04-29T13:12:32.350Z,7.22
2019-04-29T13:15:14.827Z,7.15
2019-04-29T13:18:03.470Z,6.42
2019-04-29T13:20:26.902Z,6.45
2019-04-29T13:23:01.056Z,6.72
2019-04-29T13:25:26.815Z,6.47
2019-04-29T13:28:02.000Z,5.90
2019-04-29T13:30:25.540Z,6.87
2019-04-29T13:32:53.828Z,6.62
2019-04-29T13:35:22.143Z,7.15
2019-04-29T13:37:50.512Z,7.25
2019-04-29T13:40:18.810Z,6.90
2019-04-29T13:42:49.222Z,7.10
2019-04-29T13:45:26.223Z,7.62
2019-04-29T13:48:11.604Z,7.03
2019-04-29T13:50:41.647Z,7.30
2019-04-29T13:53:11.729Z,6.55
2019-04-29T13:55:49.703Z,6.33
2019-04-29T13:58:10.039Z,4.10
2019-04-29T14:00:40.033Z,5.62
2019-04-29T14:03:11.668Z,4.97
2019-04-29T14:05:41.726Z,5.10
2019-04-29T14:08:10.051Z,5.60
2019-04-29T14:10:38.688Z,5.80
2019-04-29T14:13:15.239Z,6.45
2019-04-29T14:15:40.315Z,6.67
2019-04-29T14:18:11.601Z,5.83
2019-04-29T14:20:37.836Z,6.45
2019-04-29T14:23:06.197Z,6.10
2019-04-29T14:25:34.857Z,6.08
2019-04-29T14:28:03.225Z,7.75
2019-04-29T14:30:38.998Z,7.25
2019-04-29T14:33:02.946Z,7.67
2019-04-29T14:35:48.351Z,8.25
2019-04-29T14:38:15.119Z,8.13
2019-04-29T14:40:43.987Z,7.83
2019-04-29T14:43:32.108Z,7.85
2019-04-29T14:46:02.189Z,8.05
2019-04-29T14:48:42.168Z,8.90
2019-04-29T14:51:02.388Z,6.58
2019-04-29T14:53:30.766Z,6.83
2019-04-29T14:55:59.392Z,7.37
2019-04-29T14:58:27.778Z,8.30
2019-04-29T15:00:58.224Z,8.23
2019-04-29T15:03:28.529Z,9.03
2019-04-29T15:05:56.918Z,8.90
2019-04-29T15:08:25.306Z,8.70
2019-04-29T15:10:54.130Z,10.17
2019-04-29T15:13:24.276Z,10.43
2019-04-29T15:16:04.437Z,10.20
2019-04-29T15:18:48.120Z,10.63
2019-04-29T15:21:31.017Z,11.15
2019-04-29T15:23:47.649Z,13.30
2019-04-29T15:26:15.956Z,15.60
2019-04-29T15:28:52.993Z,15.80
2019-04-29T15:31:21.985Z,16.10
2019-04-29T15:33:50.629Z,18.12
2019-04-29T15:36:18.933Z,19.73
2019-04-29T15:39:01.481Z,20.30
2019-04-29T15:41:19.064Z,19.98
2019-04-29T15:43:48.332Z,22.55
2019-04-29T15:46:17.166Z,23.52
2019-04-29T15:48:45.492Z,23.27
2019-04-29T15:51:14.888Z,22.58
2019-04-29T15:53:43.386Z,24.82
2019-04-29T15:56:28.334Z,22.05
2019-04-29T15:58:45.006Z,27.67
2019-04-29T16:01:17.649Z,29.80
2019-04-29T16:03:43.580Z,31.05
2019-04-29T16:06:22.438Z,28.20
2019-04-29T16:08:58.932Z,25.50
2019-04-29T16:11:29.370Z,27.57
2019-04-29T16:14:08.742Z,27.32
2019-04-29T16:16:26.991Z,25.70
2019-04-29T16:19:07.327Z,27.05
2019-04-29T16:21:25.529Z,25.77
2019-04-29T16:23:57.631Z,26.62
2019-04-29T16:28:53.975Z,24.98
2019-04-29T16:31:22.266Z,25.45
2019-04-29T16:33:54.534Z,24.95
2019-04-29T16:36:21.124Z,23.35
2019-04-29T16:38:51.353Z,22.25
2019-04-29T16:41:35.961Z,21.90
2019-04-29T16:44:05.383Z,21.90
2019-04-29T16:46:37.612Z,20.72
2019-04-29T16:49:03.895Z,17.77
2019-04-29T16:51:32.180Z,17.27
2019-04-29T16:54:00.491Z,16.82
2019-04-29T16:56:28.812Z,17.92
2019-04-29T16:58:57.117Z,17.07
2019-04-29T17:01:25.433Z,18.70
2019-04-29T17:03:53.927Z,19.90
2019-04-29T17:06:22.529Z,20.85
2019-04-29T17:09:03.538Z,20.65
2019-04-29T17:11:29.985Z,20.20
2019-04-29T17:14:03.565Z,19.62
2019-04-29T17:16:30.036Z,20.37
2019-04-29T17:18:58.341Z,19.27
2019-04-29T17:21:26.959Z,19.32
2019-04-29T17:23:55.366Z,19.07
2019-04-29T17:26:25.720Z,19.75
2019-04-29T17:28:58.744Z,19.93
2019-04-29T17:31:27.805Z,22.15
2019-04-29T17:34:07.137Z,23.20
2019-04-29T17:35:16.793Z,25.92
2019-04-29T17:36:35.763Z,22.73
2019-04-29T17:39:06.416Z,23.77
2019-04-29T17:41:34.726Z,23.93
2019-04-29T17:44:22.854Z,23.57
2019-04-29T17:47:11.577Z,23.87
2019-04-29T17:49:43.263Z,24.40
2019-04-29T17:52:13.262Z,22.52
2019-04-29T17:54:45.991Z,22.07
2019-04-29T17:57:26.447Z,21.40
2019-04-29T17:59:47.640Z,20.25
2019-04-29T18:02:35.295Z,19.95
2019-04-29T18:05:18.825Z,19.32
2019-04-29T18:08:05.483Z,19.47
2019-04-29T18:10:41.533Z,19.70
2019-04-29T18:13:12.402Z,19.20
2019-04-29T18:15:57.644Z,18.13
2019-04-29T18:18:17.442Z,18.77
2019-04-29T18:21:03.189Z,18.17
2019-04-29T18:23:32.760Z,17.73
2019-04-29T18:26:08.912Z,16.60
2019-04-29T18:28:37.483Z,17.17
2019-04-29T18:31:07.560Z,17.00
2019-04-29T18:33:36.477Z,17.45
2019-04-29T18:36:07.028Z,16.07
2019-04-29T18:38:35.413Z,16.20
2019-04-29T18:41:03.851Z,15.88
2019-04-29T18:43:32.465Z,15.83
2019-04-29T18:46:00.768Z,16.10
2019-04-29T18:48:29.097Z,16.03
2019-04-29T18:50:57.394Z,15.30
2019-04-29T18:53:25.687Z,15.30
2019-04-29T18:55:55.073Z,15.35
2019-04-29T18:58:24.937Z,14.80
2019-04-29T19:00:56.084Z,14.90
2019-04-29T19:03:40.240Z,14.33
2019-04-29T19:06:10.297Z,14.53
2019-04-29T19:08:38.587Z,14.28
2019-04-29T19:11:07.127Z,13.18
2019-04-29T19:13:36.236Z,13.70
2019-04-29T19:16:10.466Z,13.48
2019-04-29T19:18:34.714Z,13.65
2019-04-29T19:21:03.012Z,13.38
2019-04-29T19:23:31.304Z,13.15
2019-04-29T19:25:59.625Z,13.45
2019-04-29T19:28:30.949Z,12.47
2019-04-29T19:31:03.150Z,12.03
2019-04-29T19:33:30.600Z,11.83
2019-04-29T19:35:58.373Z,11.30
2019-04-29T19:38:26.439Z,11.15
2019-04-29T19:40:54.769Z,10.40
2019-04-29T19:43:23.059Z,9.45
2019-04-29T19:45:51.363Z,9.25
2019-04-29T19:48:22.360Z,8.65
2019-04-29T19:51:12.913Z,8.78
2019-04-29T19:53:19.745Z,8.63
2019-04-29T19:55:48.445Z,7.78
2019-04-29T19:58:17.425Z,8.53
2019-04-29T20:00:47.573Z,7.58
2019-04-29T20:03:21.241Z,7.65
2019-04-29T20:05:48.212Z,7.87
2019-04-29T20:08:37.620Z,7.58
2019-04-29T20:10:51.204Z,7.70
2019-04-29T20:13:17.812Z,7.50
2019-04-29T20:16:10.874Z,7.75
2019-04-29T20:18:37.244Z,7.47
2019-04-29T20:21:09.083Z,7.53
2019-04-29T20:23:38.935Z,7.20
2019-04-29T20:26:15.470Z,7.40
2019-04-29T20:28:36.299Z,7.10
2019-04-29T20:31:16.383Z,7.40
2019-04-29T20:33:35.166Z,7.22
2019-04-29T20:36:04.226Z,7.25
2019-04-29T20:38:35.079Z,7.72
2019-04-29T20:41:06.198Z,7.40
2019-04-29T20:43:35.903Z,7.05
2019-04-29T20:46:04.529Z,6.90
2019-04-29T20:48:36.720Z,7.27
2019-04-29T20:51:11.667Z,7.65
2019-04-29T20:53:37.859Z,7.17
2019-04-29T20:56:12.001Z,7.40
2019-04-29T20:58:36.086Z,8.48
2019-04-29T21:01:10.834Z,7.90
2019-04-29T21:03:36.363Z,7.97
2019-04-29T21:06:06.311Z,8.90
2019-04-29T21:08:34.981Z,8.03
2019-04-29T21:11:05.762Z,8.80
2019-04-29T21:13:35.896Z,8.40
2019-04-29T21:16:17.914Z,8.80
2019-04-29T21:18:52.869Z,8.65
2019-04-29T21:21:16.340Z,9.23
2019-04-29T21:23:45.732Z,9.13
2019-04-29T21:26:15.845Z,9.17
2019-04-29T21:28:45.257Z,9.58
2019-04-29T21:31:16.595Z,10.73
2019-04-29T21:33:45.593Z,11.33
2019-04-29T21:36:16.071Z,11.15
2019-04-29T21:39:02.156Z,11.85
2019-04-29T21:41:32.674Z,11.57
2019-04-29T21:44:02.176Z,12.25
2019-04-29T21:46:30.474Z,12.90
2019-04-29T21:48:58.769Z,11.90
2019-04-29T21:51:27.093Z,12.98
2019-04-29T21:53:56.079Z,13.13
2019-04-29T21:56:25.822Z,13.08
2019-04-29T21:58:54.190Z,13.37
2019-04-29T22:01:22.896Z,14.28
2019-04-29T22:03:51.193Z,14.63
2019-04-29T22:06:19.821Z,13.90
2019-04-29T22:08:48.195Z,15.10
2019-04-29T22:11:17.523Z,15.25
2019-04-29T22:13:46.000Z,15.58
2019-04-29T22:16:15.825Z,15.68
2019-04-29T22:18:51.761Z,16.12
2019-04-29T22:21:21.807Z,16.75
2019-04-29T22:23:50.996Z,16.65
2019-04-29T22:26:16.404Z,16.45
2019-04-29T22:28:47.443Z,17.37
2019-04-29T22:31:15.975Z,17.62
2019-04-29T22:33:45.790Z,17.60
2019-04-29T22:36:18.145Z,18.77
2019-04-29T22:38:48.637Z,18.42
2019-04-29T22:41:33.610Z,18.15
2019-04-29T22:44:04.897Z,18.98
2019-04-29T22:46:33.459Z,18.95
2019-04-29T22:49:01.780Z,18.75
2019-04-29T22:51:30.120Z,19.50
2019-04-29T22:53:58.424Z,19.90
2019-04-29T22:56:27.868Z,19.70
2019-04-29T22:58:56.748Z,19.75
2019-04-29T23:01:25.945Z,20.10
2019-04-29T23:03:55.448Z,20.27
2019-04-29T23:06:25.775Z,20.00
2019-04-29T23:08:55.981Z,19.45
2019-04-29T23:11:23.972Z,20.13
2019-04-29T23:13:52.288Z,20.52
2019-04-29T23:16:20.934Z,20.35
2019-04-29T23:18:49.274Z,21.93
2019-04-29T23:21:42.719Z,21.62
2019-04-29T23:24:13.172Z,21.48
2019-04-29T23:26:40.903Z,21.42
2019-04-29T23:29:07.681Z,21.70
2019-04-29T23:31:36.996Z,21.97
2019-04-29T23:34:05.835Z,21.82
2019-04-29T23:36:34.377Z,21.90
2019-04-29T23:39:02.845Z,22.03
2019-04-29T23:41:33.004Z,22.30
2019-04-29T23:44:05.226Z,22.67
2019-04-29T23:46:34.191Z,21.73
2019-04-29T23:49:03.165Z,22.20
2019-04-29T23:51:34.261Z,22.42
2019-04-29T23:54:05.885Z,23.38
2019-04-29T23:56:38.489Z,22.73
2019-04-29T23:59:16.835Z,22.43
